Latest Coastal Weather Observations for Gabo Island

IDT60701

Issued at 3:12 pm EST Sunday 18 August 2019 (issued every 10 minutes, with the page automatically refreshed every 10 minutes)

About coastal observations | Map of coastal stations | Coastal observations for TAS | Marine services | Other Formats
Station Details ID: 084016 Name: GABO ISLAND LIGHTHOUSE Lat: -37.57 Lon: 149.92 Height: 15.2 m
Data from the previous 72 hours. | See also: Recent months at Gabo Island
Date/Time
EST
Wind Sea
Height
m
Swell Vis
km
Cloud Weather Temp
°C
Press
hPa
Rain since
9am
mm
Dir  Spd
kts
Gust
kts
Height
m
Period
s
Dir
18/03:00pm NNE 23 29 1 1.0 10 SE 30 Mostly cloudy Fine 16.2 1006.5 0.0
18/02:30pm NNE 25 31 - - - - - - - 16.7 1007.0 0.0
18/02:00pm NNE 23 32 - - - - - - - 16.4 1007.2 0.0
18/01:30pm NNE 21 25 - - - - - - - 15.9 1008.2 0.0
18/01:00pm NNE 13 19 - - - - - - - 15.6 1009.2 0.0
18/12:30pm NE 18 20 - - - - - - - 15.6 1010.0 0.0
18/12:00pm NE 16 21 - - - - - - - 15.3 1010.7 0.0
18/11:30am NE 17 19 - - - - - - - 15.5 1011.4 0.0
18/11:00am NE 18 21 - - - - - - - 15.6 1012.0 0.0
18/10:30am NE 14 18 - - - - - - - 15.6 1012.8 0.0
18/10:00am NNE 12 14 - - - - - - - 14.8 1013.4 0.0
18/09:30am NNE 15 19 - - - - - - - 14.6 1013.6 0.0
18/09:00am NNE 17 21 1 1.0 10 SE 40 Mostly cloudy Fine 15.2 1013.6 0.0
18/08:30am NNE 19 23 - - - - - - - 14.4 1013.7 0.0
18/08:00am NNE 16 21 - - - - - - - 13.8 1013.9 0.0
18/07:30am NNE 15 17 - - - - - - - 13.2 1014.4 0.0
18/07:00am NNE 14 18 - - - - - - - 12.8 1014.5 0.0
18/06:30am N 14 18 - - - - - - - 12.8 1014.8 0.0
18/06:00am NNE 18 22 - - - - - - - 13.2 1014.3 0.0
18/05:30am NNE 17 22 - - - - - - - 13.3 1014.5 0.0
18/05:00am NNE 17 22 - - - - - - - 13.2 1014.8 0.0
18/04:30am NE 11 17 - - - - - - - 12.9 1015.0 0.0
18/04:00am NE 19 24 - - - - - - - 12.7 1014.9 0.0
18/03:30am NE 20 24 - - - - - - - 12.8 1015.2 0.0
18/03:00am NE 21 27 1 0.5 8 S 50 Mostly clear Fine 12.8 1015.8 0.0
18/02:30am NNE 17 22 - - - - - - - 12.9 1016.2 0.0
18/02:00am NNE 14 19 - - - - - - - 12.9 1017.1 0.0
18/01:30am N 8 10 - - - - - - - 12.0 1017.6 0.0
18/01:00am NNE 13 15 - - - - - - - 12.4 1017.5 0.0
18/12:30am NNE 14 16 - - - - - - - 12.3 1017.8 0.0
18/12:00am NE 17 20 - - - - - - - 12.3 1017.8 0.0
 
Date/Time
EST
Wind Sea
Height
m
Swell Vis
km
Cloud Weather Temp
°C
Press
hPa
Rain since
9am
mm
Dir  Spd
kts
Gust
kts
Height
m
Period
s
Dir
17/11:30pm NNE 11 14 - - - - - - - 11.4 1018.4 0.0
17/11:00pm N 4 6 - - - - - - - 10.4 1019.0 0.0
17/10:30pm N 5 7 - - - - - - - 9.6 1019.2 0.0
17/10:00pm NNE 6 7 - - - - - - - 10.2 1019.3 0.0
17/09:30pm N 5 6 - - - - - - - 10.0 1019.7 0.0
17/09:00pm NNW 6 7 1 0.5 9 S 50 Mostly clear Fine 10.5 1020.1 0.0
17/08:30pm N 6 7 - - - - - - - 9.9 1020.2 0.0
17/08:00pm NNE 5 6 - - - - - - - 10.2 1020.3 0.0
17/07:30pm N 5 6 - - - - - - - 10.7 1020.3 0.0
17/07:00pm NNE 3 5 - - - - - - - 10.8 1020.2 0.0
17/06:30pm N 3 4 - - - - - - - 11.9 1019.9 0.0
17/06:00pm SSE 5 6 - - - - - - - 12.7 1019.7 0.0
17/05:30pm SSW 7 8 - - - - - - - 12.8 1019.4 0.0
17/05:00pm SSW 8 9 - - - - - - - 13.2 1019.3 0.0
17/04:30pm SSW 10 11 - - - - - - - 13.4 1019.3 0.0
17/04:00pm SSW 10 12 - - - - - - - 13.5 1019.2 0.0
17/03:30pm SSW 11 12 - - - - - - - 13.9 1019.2 0.0
17/03:00pm SSW 11 13 1 1.0 8 S 50 Mostly clear Fine 13.7 1019.1 0.0
17/02:30pm SSW 12 13 - - - - - - - 13.6 1019.2 0.0
17/02:00pm SSW 12 14 - - - - - - - 13.5 1019.2 0.0
17/01:30pm SW 12 13 - - - - - - - 13.8 1019.4 0.0
17/01:00pm SW 10 13 - - - - - - - 14.1 1019.7 0.0
17/12:30pm WSW 10 12 - - - - - - - 14.9 1019.9 0.0
17/12:00pm WSW 11 13 - - - - - - - 14.8 1020.0 0.0
17/11:30am WSW 11 14 - - - - - - - 14.3 1020.2 0.0
17/11:00am W 11 14 - - - - - - - 13.6 1020.5 0.0
17/10:30am W 13 16 - - - - - - - 13.8 1020.2 0.0
17/10:00am W 14 17 - - - - - - - 12.7 1020.1 0.0
17/09:30am W 14 17 - - - - - - - 12.1 1019.8 0.0
17/09:00am W 15 19 1 1.0 8 S 40 Partly cloudy Distant precip. 11.2 1019.7 1.0
17/08:30am W 16 19 - - - - - - - 11.4 1019.5 1.0
17/08:00am W 18 21 - - - - - - - 10.9 1019.2 1.0
17/07:30am W 20 23 - - - - - - - 10.3 1018.7 1.0
17/07:00am W 19 24 - - - - - - - 10.3 1018.2 1.0
17/06:30am W 21 26 - - - - - - - 10.3 1017.6 1.0
17/06:00am W 22 27 - - - - - - - 10.3 1016.9 1.0
17/05:30am W 21 26 - - - - - - - 10.2 1016.5 0.8
17/05:00am W 21 27 - - - - - - - 10.4 1016.2 0.8
17/04:30am W 21 26 - - - - - - - 10.6 1015.8 0.8
17/04:00am W 22 27 - - - - - - - 10.7 1015.6 0.8
17/03:30am W 20 26 - - - - - - - 10.8 1015.6 0.8
17/03:00am W 20 28 1 0.5 11 S 40 Cloudy Fine 10.7 1015.6 0.8
17/02:30am W 18 23 - - - - - - - 10.9 1015.7 0.8
17/02:00am WSW 20 26 - - - - - - - 11.0 1015.7 0.8
17/01:30am W 19 23 - - - - - - - 10.9 1015.6 0.8
17/01:00am W 16 21 - - - - - - - 10.8 1015.8 0.8
17/12:30am W 15 19 - - - - - - - 11.0 1016.0 0.8
17/12:00am W 16 21 - - - - - - - 11.3 1015.8 0.8
 
Date/Time
EST
Wind Sea
Height
m
Swell Vis
km
Cloud Weather Temp
°C
Press
hPa
Rain since
9am
mm
Dir  Spd
kts
Gust
kts
Height
m
Period
s
Dir
16/11:30pm W 15 19 - - - - - - - 11.4 1015.6 0.8
16/11:00pm WSW 17 22 - - - - - - - 11.8 1015.6 0.8
16/10:30pm W 16 20 - - - - - - - 11.8 1015.5 0.8
16/10:00pm W 16 20 - - - - - - - 11.9 1015.4 0.8
16/09:30pm WSW 16 20 - - - - - - - 12.2 1015.4 0.8
16/09:00pm WSW 16 21 1 0.5 11 S 15 Mostly cloudy Showers 12.5 1015.1 0.6
16/08:30pm WSW 20 25 - - - - - - - 12.9 1014.7 0.6
16/08:00pm SW 28 32 - - - - - - - 13.3 1014.5 0.6
16/07:39pm SSW 14 28 - - - - - - - 14.4 1014.4 0.6
16/07:37pm S 11 22 - - - - - - - 14.6 1014.4 0.6
16/07:30pm SE 5 6 - - - - - - - 14.0 1013.9 0.6
16/07:00pm N 9 12 - - - - - - - 14.4 1012.8 0.6
16/06:30pm NNE 12 15 - - - - - - - 14.5 1012.6 0.6
16/06:00pm N 15 19 - - - - - - - 14.8 1012.4 0.6
16/05:30pm NNE 16 20 - - - - - - - 14.7 1012.2 0.6
16/05:00pm N 15 18 - - - - - - - 14.7 1012.1 0.6
16/04:30pm NNE 11 13 - - - - - - - 14.2 1012.1 0.6
16/04:00pm N 9 11 - - - - - - - 13.9 1012.0 0.6
16/03:30pm N 12 15 - - - - - - - 14.3 1012.4 0.6
16/03:00pm NNE 10 14 <0.5 0.5 11 S 50 Mostly cloudy Fine 14.3 1011.8 0.6
16/02:30pm NNE 6 6 - - - - - - - 14.6 1011.7 0.6
16/02:00pm NNW 7 12 - - - - - - - 15.2 1012.2 0.6
16/01:30pm W 6 7 - - - - - - - 13.9 1013.0 0.6
16/01:00pm W 4 8 - - - - - - - 14.5 1013.3 0.6
16/12:30pm NW 5 9 - - - - - - - 13.0 1014.3 0.4
16/12:00pm W 9 17 - - - - - - - 13.2 1015.2 0.2
16/11:30am NW 6 9 - - - - - - - 13.4 1015.3 0.2
16/11:00am NW 7 11 - - - - - - - 12.7 1015.8 0.0
16/10:30am NW 8 10 - - - - - - - 13.6 1016.0 0.0
16/10:00am WNW 6 10 - - - - - - - 12.8 1016.2 0.0
16/09:30am W 10 12 - - - - - - - 12.4 1016.7 0.0
16/09:00am WSW 11 13 1 0.5 11 S 50 Mostly cloudy Fine 12.9 1016.9 0.0
16/08:30am WSW 13 16 - - - - - - - 12.8 1016.3 0.0
16/08:00am W 11 14 - - - - - - - 13.3 1015.9 0.0
16/07:30am WNW 12 16 - - - - - - - 13.6 1015.8 0.0
16/07:00am NW 11 16 - - - - - - - 14.2 1015.2 0.0
16/06:30am NW 7 12 - - - - - - - 13.5 1015.0 0.0
16/06:00am N 6 9 - - - - - - - 12.4 1014.4 0.0
16/05:30am NW 5 8 - - - - - - - 11.1 1014.7 0.0
16/05:00am NNE 3 6 - - - - - - - 8.7 1014.9 0.0
16/04:30am NNE 4 5 - - - - - - - 8.8 1014.9 0.0
16/04:00am NNE 3 4 - - - - - - - 9.7 1015.4 0.0
16/03:30am NE 4 4 - - - - - - - 9.4 1015.6 0.0
16/03:00am N 3 5 1 1.0 10 S 50 Mostly clear Fine 9.6 1016.2 0.0
16/02:30am NE 3 4 - - - - - - - 9.7 1016.7 0.0
16/02:00am NNE 3 5 - - - - - - - 9.2 1017.0 0.0
16/01:30am NE 5 6 - - - - - - - 8.7 1017.4 0.0
16/01:00am N 6 7 - - - - - - - 8.7 1017.7 0.0
16/12:30am N 6 7 - - - - - - - 9.0 1018.2 0.0
16/12:00am NNE 6 7 - - - - - - - 9.2 1018.6 0.0
 
Date/Time
EST
Wind Sea
Height
m
Swell Vis
km
Cloud Weather Temp
°C
Press
hPa
Rain since
9am
mm
Dir  Spd
kts
Gust
kts
Height
m
Period
s
Dir
15/11:30pm N 8 11 - - - - - - - 10.5 1018.9 0.0
15/11:00pm N 10 13 - - - - - - - 11.1 1019.1 0.0
15/10:30pm N 11 13 - - - - - - - 11.4 1019.1 0.0
15/10:00pm N 9 11 - - - - - - - 11.0 1019.4 0.0
15/09:30pm N 11 13 - - - - - - - 11.9 1019.3 0.0
15/09:00pm NNE 11 13 1 1.0 10 S 50 Mostly cloudy Fine 11.8 1019.6 0.0
15/08:30pm NNE 9 11 - - - - - - - 11.9 1019.9 0.0
15/08:00pm N 12 14 - - - - - - - 11.5 1020.0 0.0
15/07:30pm N 10 15 - - - - - - - 11.8 1020.2 0.0
15/07:00pm N 11 14 - - - - - - - 12.2 1020.2 0.0
15/06:30pm N 11 13 - - - - - - - 11.7 1019.9 0.0
15/06:00pm NNE 12 14 - - - - - - - 12.0 1019.8 0.0
15/05:30pm NNE 11 14 - - - - - - - 12.3 1019.7 0.0
15/05:00pm NNE 10 12 - - - - - - - 12.9 1019.6 0.0
15/04:30pm NNE 8 9 - - - - - - - 13.4 1019.6 0.0
15/04:00pm ENE 4 5 - - - - - - - 14.0 1019.7 0.0
15/03:30pm ESE 4 6 - - - - - - - 13.9 1019.8 0.0

Other formats

Comma delimited format used in spreadsheet applications
http://www.bom.gov.au/fwo/IDT60701/IDT60701.94933.axf

JavaScript Object Notation format (JSON) in row-major order
http://www.bom.gov.au/fwo/IDT60701/IDT60701.94933.json

Data quality

Most of these data are generated automatically and are frequently updated. Quality checks on data are not normally performed. It is possible for incorrect values to appear. Refer to information at About Latest Weather Observations and please check the disclaimer before using these data.